Carson Sink, Nevada Weather observations

Data are for observation ending at time listed.
 Day   Time    Ave.   Ave.  Ave.  Vector   Max.   Stn.    Total    Solar   Ave.  
  of    of     Air    Rel.  Wind   Wind    Wind   Baro.  Precip.   Rad.    Soil  
Year   Day     Temp.  Hum.  Speed  Dir.    Gust   Pres.                    Temp. 
2015   (PST)    F      %     mph   deg.    mph     mb.     in.     W/m2     F   
------------------------------------------------------------------------------
 122   12:30   77.1    16    3.6   276      7.7   877.9    0.00     927     75.9
 122   12:40   77.6    15    3.6   342     14.7   877.7    0.00     920     76.4
 122   12:50   77.9    15    6.9   249     19.3   877.6    0.00     909     76.9
 122   13:00   78.2    15    3.3     9      8.8   877.5    0.00     900     77.3
 122   13:10   78.9    14    9.9   208     16.8   877.3    0.00     888     77.8
 122   13:20   79.2    14    6.2   210     13.9   877.2    0.00     873     78.3
 122   13:30   79.3    14    9.1   204     17.0   877.0    0.00     856     78.8
 122   13:40   79.0    14    5.1   179     11.5   876.9    0.00     842     79.2
 122   13:50   79.9    14   13.5   248     22.2   876.7    0.00     827     79.6
 122   14:00   79.4    14   10.2   247     15.3   876.6    0.00     805     80.0
 122   14:10   79.8    14    7.3   256     13.8   876.5    0.00     784     80.2
 122   14:20   80.1    13   11.6   233     20.5   876.3    0.00     766     80.4
 122   14:30   79.9    13    6.9   228     14.0   876.2    0.00     740     80.5
 122   14:40   80.9    13    7.4   246     21.6   876.0    0.00     717     80.6
 122   14:50   80.3    13   11.4   251     21.8   875.9    0.00     687     80.6
 122   15:00   80.9    13    6.0   242     13.5   875.8    0.00     667     80.7
 122   15:10   80.5    12   12.1   247     17.1   875.7    0.00     641     80.8
 122   15:20   80.2    12    9.3   244     19.2   875.6    0.00     611     80.9
 122   15:30   80.1    12    8.7   265     17.1   875.6    0.00     582     81.0
 122   15:40   80.4    12    5.5   251      9.6   875.5    0.00     553     81.1
 122   15:50   81.2    12    5.7   195     11.6   875.4    0.00     523     81.2
 122   16:00   81.0    12   11.4   239     17.5   875.2    0.00     494     81.3
 122   16:10   80.6    12    9.8   238     16.0   875.1    0.00     462     81.4
 122   16:20   81.1    12    6.8   267     14.3   875.0    0.00     428     81.5
 122   16:30   80.9    12    7.9   283     13.0   874.9    0.00     395     81.6
 122   16:40   81.1    12    3.8   224     10.1   874.9    0.00     363     81.7
 122   16:50   81.5    12    8.2   233     12.4   874.8    0.00     328     81.8
 122   17:00   80.7    12    9.9   274     17.0   874.7    0.00     295     81.8
 122   17:10   80.3    12    9.7   318     14.2   874.7    0.00     245     81.8
 122   17:20   80.5    13    8.6   283     20.6   874.7    0.00     232     81.8
 122   17:30   80.3    13   11.4   294     19.2   874.7    0.00     201     81.7
 122   17:40   80.1    13   10.1   284     14.2   874.7    0.00     169     81.6
 122   17:50   79.8    13   13.2   297     18.2   874.6    0.00      79     81.5
 122   18:00   79.2    13    9.6   314     13.7   874.7    0.00      94     81.4
 122   18:10   79.2    13    8.7   302     13.2   874.7    0.00      77     81.3
 122   18:20   78.9    14    8.2   309     12.4   874.7    0.00      54     81.1
 122   18:30   78.7    14    5.3   276     10.1   874.8    0.00      38     80.9
 122   18:40   77.8    15   13.1   305     19.2   874.9    0.00      30     80.7
 122   18:50   77.0    15   14.0   310     17.3   875.0    0.00      20     80.6
 122   19:00   76.3    15   13.0   307     16.7   875.1    0.00      10     80.4
 122   19:10   75.7    16   11.4   307     14.8   875.2    0.00       1     80.2
 122   19:20   74.9    16    9.8   303     11.4   875.4    0.00       0     79.9
 122   19:30   74.3    16    8.6   301     10.4   875.5    0.00       0     79.7
 122   19:40   73.5    17    8.2   303      9.9   875.7    0.00       0     79.5
 122   19:50   72.4    18    6.5   313      7.9   875.8    0.00       0     79.3
 122   20:00   71.7    19    7.8   300      9.6   876.0    0.00       0     79.0
 122   20:10   72.4    17   15.2   294     20.4   876.2    0.00       0     78.8
 122   20:20   72.5    17   15.6   296     18.3   876.3    0.00       0     78.5
 122   20:30   72.0    18   13.5   297     17.2   876.6    0.00       0     78.3
 122   20:40   71.6    18   12.0   278     14.7   876.9    0.00       0     78.1
 122   20:50   71.3    19   10.9   243     14.6   877.2    0.00       0     77.8
 122   21:00   71.3    18   12.2   230     15.6   877.4    0.00       0     77.6
 122   21:10   71.2    19   13.8   228     17.0   877.4    0.00       0     77.4
 122   21:20   69.8    23   12.9   231     15.5   877.5    0.00       0     77.2
 122   21:30   69.0    24   13.1   229     18.0   877.7    0.00       0     77.0
 122   21:40   68.3    24   12.7   232     16.4   877.7    0.00       0     76.7
 122   21:50   67.7    24   11.8   235     14.3   877.8    0.00       0     76.6
 122   22:00   67.3    25   10.9   241     13.1   877.8    0.00       0     76.4
 122   22:10   66.7    25   11.2   242     12.7   877.9    0.00       0     76.2
 122   22:20   66.1    26    9.3   253     11.9   878.0    0.00       0     76.0
 122   22:30   66.0    25    8.8   258     10.3   877.9    0.00       0     75.7
 122   22:40   65.1    26    7.4   250      8.8   878.0    0.00       0     75.6
 122   22:50   64.6    26    6.6   245      7.8   878.0    0.00       0     75.3
 122   23:00   64.1    26    5.4   246      6.6   878.2    0.00       0     75.1
 122   23:10   63.6    27    4.2   257      5.3   878.3    0.00       0     74.9
 122   23:20   64.2    26    3.5   357      4.7   878.4    0.00       0     74.7
 122   23:30   65.0    25    3.5   322      4.9   878.4    0.00       0     74.5
 122   23:40   65.1    24    1.3   319      3.1   878.5    0.00       0     74.3
 122   23:50   63.5    27    4.8   201      7.2   878.5    0.00       0     74.1
 123    0:00   61.8    28    6.1   213      7.2   878.5    0.00       0     73.9
 123    0:10   61.8    28    4.9   256      6.6   878.5    0.00       0     73.7
 123    0:20   62.3    27    4.4   262      5.3   878.5    0.00       0     73.5
 123    0:30   63.6    26    4.2   269      5.6   878.5    0.00       0     73.3
 123    0:40   64.7    24    5.0   281      5.9   878.4    0.00       0     73.1
 123    0:50   65.9    22    5.1   292      6.3   878.4    0.00       0     72.9
 123    1:00   64.4    24    4.3   301      6.4   878.4    0.00       0     72.7
 123    1:10   63.3    25    3.6   319      5.6   878.4    0.00       0     72.5
 123    1:20   60.7    29    4.1   179      8.8   878.5    0.00       0     72.3
 123    1:30   59.4    30    3.1   192      4.5   878.5    0.00       0     72.1
 123    1:40   58.9    31    2.6   213      4.4   878.5    0.00       0     71.9
 123    1:50   57.8    33    3.0   198      8.4   878.4    0.00       0     71.6
 123    2:00   57.7    34    4.3   188      6.3   878.3    0.00       0     71.4
 123    2:10   56.1    35    4.4   205      5.0   878.3    0.00       0     71.2
 123    2:20   54.5    38    4.2   203      5.8   878.3    0.00       0     71.0
 123    2:30   53.8    40    4.2   214      5.6   878.3    0.00       0     70.8
 123    2:40   53.0    41    1.6   212      3.0   878.4    0.00       0     70.6
 123    2:50   53.9    41    1.9   156      2.9   878.5    0.00       0     70.4
 123    3:00   54.6    40    3.5   181      5.0   878.4    0.00       0     70.2
 123    3:10   53.6    41    3.6   164      5.0   878.4    0.00       0     70.0
 123    3:20   54.6    39    1.7   184      3.1   878.4    0.00       0     69.8
 123    3:30   53.9    40    2.9   150      4.5   878.4    0.00       0     69.6
 123    3:40   53.7    40    2.6   161      3.2   878.3    0.00       0     69.4
 123    3:50   54.4    39    2.3   177      4.0   878.3    0.00       0     69.2
 123    4:00   53.5    40    2.0   185      3.1   878.4    0.00       0     69.0
 123    4:10   53.4    40    1.5   193      3.0   878.5    0.00       0     68.8
 123    4:20   51.9    43    0.8   182      2.0   878.5    0.00       0     68.7
 123    4:30   51.0    45    1.6   108      3.5   878.5    0.00       0     68.5
 123    4:40   50.5    47    3.5   151      4.5   878.5    0.00       0     68.3
 123    4:50   51.5    44    2.4   184      4.7   878.5    0.00       1     68.1
 123    5:00   51.1    44    4.5   190      6.8   878.5    0.00       5     67.9
 123    5:10   51.1    42    4.6   202      6.6   878.7    0.00      22     67.7
 123    5:20   48.7    44    5.0   241      6.3   878.7    0.00      49     67.6
 123    5:30   48.8    45    4.5   280      6.2   878.9    0.00      84     67.4
 123    5:40   47.8    50    3.7   309      4.5   878.9    0.00     121     67.2
 123    5:50   48.2    52    2.8   322      4.2   879.0    0.00     161     67.0
 123    6:00   50.1    50    1.5   354      2.9   879.1    0.00     186     66.9
 123    6:10   53.5    45    0.5    36      2.8   879.2    0.00     209     66.7
 123    6:20   53.6    43    2.6    42      3.9   879.2    0.00     240     66.6
 123    6:30   55.4    40    1.2    99      2.2   879.3    0.00     270     66.5
 123    6:40   57.3    38    1.9   184      2.8   879.2    0.00     304     66.4
 123    6:50   59.8    34    1.0   178      2.9   879.3    0.00     337     66.3
 123    7:00   62.1    32    1.0   179      1.8   879.4    0.00     371     66.2
 123    7:10   62.5    31    2.2   180      3.1   879.3    0.00     404     66.2
 123    7:20   63.1    30    2.3   181      3.4   879.3    0.00     436     66.2
 123    7:30   63.3    29    3.5   173      5.3   879.3    0.00     469     66.2
 123    7:40   64.0    28    3.7   180      5.0   879.3    0.00     502     66.3
 123    7:50   65.7    24    4.2   189      6.3   879.2    0.00     534     66.4
 123    8:00   66.7    22    3.4   178      5.6   879.2    0.00     564     66.5
 123    8:10   67.4    22    3.9   166      6.7   879.3    0.00     594     66.6
 123    8:20   67.9    22    2.2    87      4.7   879.3    0.00     624     66.8
 123    8:30   68.1    23    3.2   273      5.9   879.3    0.00     653     67.0
 123    8:40   68.8    23    2.4   100      5.6   879.4    0.00     681     67.3
 123    8:50   69.0    23    2.1    36      6.1   879.3    0.00     708     67.5
 123    9:00   69.0    23    3.7   312      8.0   879.3    0.00     732     67.8
 123    9:10   69.1    23    4.9   282      9.3   879.3    0.00     756     68.1
 123    9:20   69.4    23    3.2   259      5.7   879.3    0.00     778     68.5
 123    9:30   70.1    21    3.6   269      8.0   879.2    0.00     800     68.8
 123    9:40   71.3    20    3.4   180      6.1   879.2    0.00     819     69.2
 123    9:50   71.2    21    3.5   119      6.4   879.1    0.00     838     69.6
 123   10:00   71.2    21    4.0   342      8.1   879.1    0.00     856     70.0
 123   10:10   71.2    21    6.1   298     11.5   879.1    0.00     871     70.4
 123   10:20   71.4    20    2.9    47      9.1   879.0    0.00     887     70.9
 123   10:30   72.6    20    3.3   211      6.6   878.9    0.00     899     71.3
 123   10:40   71.9    20    4.5   265      9.4   878.7    0.00     911     71.8
 123   10:50   72.2    19    5.0   342      9.9   878.6    0.00     920     72.2
 123   11:00   72.6    18    2.8    31      6.2   878.6    0.00     931     72.7
 123   11:10   73.1    17    4.7   336      9.8   878.5    0.00     935     73.2
 123   11:20   74.3    17    2.5   220      5.8   878.3    0.00     939     73.7
 123   11:30   74.6    16    2.9   343      9.6   878.2    0.00     942     74.3
 123   11:40   74.8    16    6.3   254     11.9   878.0    0.00     944     74.7
 123   11:50   75.0    16    5.3   220     11.8   877.9    0.00     942     75.3
 123   12:00   75.2    16    8.0   238     13.0   877.7    0.00     941     75.7
 123   12:10   75.2    16    3.8   171      8.0   877.6    0.00     938     76.2
 123   12:20   76.0    15    3.5   252      9.1   877.4    0.00     934     76.7

Return to Carson Sink graphs page.


Western Regional Climate Center,wrcc@dri.edu